PST,Max TemperatureF,Mean TemperatureF,Min TemperatureF,Max Dew PointF,MeanDew PointF,Min DewpointF,Max Humidity, Mean Humidity, Min Humidity, Max Sea Level PressureIn, Mean Sea Level PressureIn, Min Sea Level PressureIn, Max VisibilityMiles, Mean VisibilityMiles, Min VisibilityMiles, Max Wind SpeedMPH, Mean Wind SpeedMPH, Max Gust SpeedMPH,PrecipitationIn, CloudCover, Events, WindDirDegrees
2014-2-1,33,17,1,27,10,-4,100,83,39,30.09,30.02,30.00,10,8,0,5,1,,0.00,1,Fog,147
2014-2-2,26,16,6,27,17,3,100,92,74,29.99,29.90,29.83,10,7,2,4,0,,0.00,6,Snow,27
2014-2-3,33,24,14,23,20,12,100,87,56,29.94,29.90,29.86,10,10,0,8,1,,0.00,5,Fog,243
2014-2-4,33,18,3,19,13,1,100,82,41,30.04,29.99,29.94,10,9,2,10,1,,0.00,3,,205
2014-2-5,37,21,5,30,14,1,100,73,33,30.07,30.01,29.95,10,10,10,10,2,20,0.00,4,,249
2014-2-6,37,30,24,30,26,21,100,83,70,29.95,29.87,29.80,10,9,2,12,2,16,0.00,7,Snow,218
2014-2-7,37,32,30,32,28,23,93,84,69,29.98,29.90,29.86,10,7,0,22,10,37,0.00,7,Rain-Snow,213
2014-2-8,39,36,33,36,33,30,93,88,75,30.16,30.08,29.98,10,8,3,20,10,34,1.18,8,Rain,200
2014-2-9,42,38,35,39,35,34,100,92,81,30.14,30.08,30.04,10,8,2,14,6,20,0.74,8,Rain,188
2014-2-10,46,37,28,36,31,27,100,92,53,30.27,30.20,30.07,10,9,1,9,2,,0.21,4,Fog-Rain-Snow,57
2014-2-11,51,36,21,34,25,14,100,79,22,30.27,30.23,30.11,10,6,0,9,2,18,0.00,7,Fog,249
2014-2-12,55,42,28,25,20,10,80,54,21,30.26,30.23,30.21,10,10,10,20,2,25,0.00,1,,205
2014-2-13,50,40,30,43,34,21,100,79,64,30.26,30.21,30.19,10,10,10,8,3,22,0.00,8,Rain,198
2014-2-14,59,46,32,36,27,19,100,59,25,30.20,30.15,30.11,10,10,10,15,4,23,0.00,1,,82
2014-2-15,57,44,30,32,22,7,100,57,14,30.11,30.05,30.00,10,9,1,28,9,48,0.01,5,Rain-Snow,197
2014-2-16,48,36,21,32,27,19,100,78,34,30.22,30.11,29.94,10,10,5,22,8,30,0.09,3,Rain,215
2014-2-17,50,34,17,25,19,14,100,71,29,30.19,30.14,30.10,10,10,10,14,2,23,0.00,1,,214
2014-2-18,53,36,19,21,17,5,86,58,23,30.24,30.14,29.99,10,10,10,21,2,29,0.00,2,,228
2014-2-19,46,34,23,30,21,1,93,59,21,30.21,30.08,29.97,10,10,7,22,11,34,0.00,2,Snow,256
2014-2-20,53,35,17,25,22,18,100,69,32,30.26,30.19,30.15,10,10,10,16,2,21,0.00,2,,192
2014-2-21,53,36,19,28,25,18,100,77,35,30.19,30.11,30.04,10,10,10,13,1,17,0.00,1,,242
2014-2-22,55,36,17,32,25,16,100,80,21,30.10,30.05,29.98,10,9,1,8,1,,0.00,1,,309
2014-2-23,57,38,19,30,23,12,100,74,17,30.12,30.08,30.04,10,6,0,13,1,,0.00,3,Fog,219
2014-2-24,60,38,17,32,24,14,93,74,22,30.14,30.10,30.04,10,10,10,9,1,,0.00,0,,240
2014-2-25,60,40,19,30,26,19,100,73,22,30.11,30.05,29.99,10,8,0,12,2,22,0.00,2,Fog,198
2014-2-26,48,37,26,36,30,25,100,83,50,30.03,29.90,29.73,10,10,6,23,3,39,0.25,6,Rain,180
2014-2-27,39,32,26,34,30,27,100,91,75,29.86,29.80,29.71,10,7,1,15,8,29,0.13,5,Rain-Snow,200
2014-2-28,44,35,26,36,31,27,100,94,61,29.76,29.55,29.43,10,8,1,12,3,18,0.01,7,Rain-Snow,212